Appam, North Dakota
Current Conditions -  °F | °C
As of 6:15 AM on Thursday 29 Jan 2015 (Local Time) from KD50 Reporting Station
Overcast Overcast  
Wind Chill: -13°   Ceiling: 1500
Heat Index: -5°   Visibility: 10mi
Dew Point: -6°   Wind: 17mph
Humidity: 93%   Direction: 300°WNW
Pressure: 30.43"   Gusts: NA
Location:  48.59°N, 103.406°W
Report Text: KD50 291215Z AUTO 30015KT 10SM OVC015 M05/M06 A3043 RMK AO2
Loading
Personal Weather Stations






























Interactive Weather Map New forecast layout! Learn more

10-Day Weather Forecast

Advertisements
Track Severe Weather on mobile